• Join FlightAware (Why Join?)
  • Login
  • US Flag 
02:49AM EST


 

Airport Tracker/Info


-or-


 

Live Flight TrackerFlight Track Log ✈ DAL160 ✈ 27-Jul-2013 ✈ KSEA - KJFK

Flight Track Log - Related Links

Times and Time Zones

All times are in EDT time to prevent confusion due to time zone crossing. See the DAL160 flight status page for this flight to view local times or setup timezone preferences in your user account.

Time Position Orientation Groundspeed Altitude Reporting Facility
EDT Latitude Longitude Course Direction KTS MPH feet Rate Location/Type
10:09AM 47.4258 -122.3089 90° East 164 189 1,700  Level Seattle Center
10:10AM 47.3556 -122.3092 180° South 223 257 4,300 2,760 Climbing Seattle Center
10:11AM 47.3108 -122.2336 131° Southeast 286 329 7,700 3,180 Climbing Seattle Center
10:12AM 47.4167 -121.5334 90° East  Level FlightAware Approximate
10:12AM 47.3258 -122.1053 80° East 305 351 10,800  Level Seattle Center
10:13AM 47.4167 -121.3408 90° East  Level FlightAware Approximate
10:13AM 47.3639 -121.9664 68° East 372 428 13,000  Level Seattle Center
10:14AM 47.4167 -121.1483 90° East  Level FlightAware Approximate
10:14AM 47.4044 -121.8139 69° East 399 459 16,200  Level Seattle Center
10:15AM 47.4294 -121.6578 77° East 424 488 18,600 2,520 Climbing Seattle Center
10:16AM 47.4350 -121.4761 87° East 446 513 21,300 2,400 Climbing Seattle Center
10:17AM 47.4342 -121.2867 90° East 466 536 23,600 2,220 Climbing Seattle Center
10:18AM 47.4331 -121.0903 90° East 483 556 25,800 2,160 Climbing Seattle Center
10:19AM 47.4344 -120.8450 89° East 504 580 28,000 2,100 Climbing Seattle Center
10:20AM 47.4356 -120.6503 89° East 514 592 30,100 1,920 Climbing Seattle Center
10:21AM 47.4303 -120.4378 92° East 519 597 32,000 1,740 Climbing Seattle Center
10:22AM 47.4289 -120.2250 90° East 522 601 33,700 1,620 Climbing Seattle Center
10:23AM 47.4261 -120.0136 91° East 518 596 35,300 1,560 Climbing Seattle Center
10:24AM 47.4244 -119.8039 91° East 515 593 36,900 780 Climbing Seattle Center
10:25AM 47.4197 -119.6031 92° East 496 571 37,000  Climbing Seattle Center
10:26AM 47.4178 -119.4006 91° East 497 572 37,000  Level Seattle Center
10:27AM 47.4136 -119.1925 92° East 503 579 37,000  Level Seattle Center
10:28AM 47.4086 -118.9856 92° East 510 587 37,000  Level Seattle Center
10:29AM 47.4036 -118.7336 92° East 514 592 37,000  Level Seattle Center
10:30AM 47.3978 -118.5244 92° East 514 592 37,000  Level Seattle Center
10:31AM 47.3928 -118.3167 92° East 509 586 37,000  Level Seattle Center
10:32AM 47.3867 -118.1100 92° East 508 585 37,000  Level Seattle Center
10:33AM 47.3817 -117.9047 92° East 504 580 37,000  Level Seattle Center
10:34AM 47.3747 -117.7025 93° East 500 575 37,000  Level Seattle Center
10:35AM 47.3689 -117.4997 92° East 499 574 37,000  Level Seattle Center
10:36AM 47.3611 -117.2975 93° East 501 577 37,000  Level Seattle Center
10:37AM 47.3528 -117.0944 93° East 507 583 37,000  Level Seattle Center
10:38AM 47.3453 -116.8492 92° East 509 586 37,000  Level Seattle Center
10:39AM 47.3367 -116.6428 93° East 510 587 37,000  Level Seattle Center
10:40AM 47.3281 -116.4367 93° East 509 586 37,000  Level Seattle Center
10:41AM 47.3197 -116.2308 93° East 506 582 37,000  Level Seattle Center
10:42AM 47.3097 -116.0258 94° East 505 581 37,000  Level Seattle Center
10:43AM 47.2997 -115.8208 94° East 504 580 37,000  Level Seattle Center
10:44AM 47.2908 -115.6306 94° East 504 580 37,000  Level Seattle Center
10:45AM 47.2778 -115.3858 94° East 503 579 37,000  Level Seattle Center
10:46AM 47.2672 -115.1814 94° East 503 579 37,000  Level Seattle Center
10:47AM 47.2553 -114.9775 95° East 503 579 37,000  Level Seattle Center
10:49AM 47.2442 -114.7756 95° East 501 577 37,000  Level Seattle Center
10:50AM 47.2317 -114.5725 95° East 502 578 37,000 -60 Level Seattle Center
10:51AM 47.2192 -114.3683 95° East 504 580 36,900  Descending Seattle Center
10:52AM 47.2069 -114.1656 95° East 503 579 37,000  Climbing Seattle Center
10:53AM 47.1944 -113.9597 95° East 507 583 37,000  Level Seattle Center
10:54AM 47.1803 -113.7531 96° East 511 588 37,000  Level Seattle Center
10:55AM 47.1606 -113.4622 96° East 515 593 37,000  Level Salt Lake Center
10:56AM 47.1467 -113.2553 96° East 513 590 37,000  Level Salt Lake Center
10:57AM 47.1306 -113.0472 96° East 516 594 37,000  Level Salt Lake Center
10:58AM 47.1142 -112.8042 96° East 515 593 37,000  Level Salt Lake Center
10:59AM 47.0972 -112.5969 97° East 515 593 37,000  Level Salt Lake Center
11:00AM 47.0822 -112.3919 96° East 509 586 37,000  Level Salt Lake Center
11:01AM 47.0658 -112.1856 97° East 512 589 37,000  Level Salt Lake Center
11:02AM 47.0444 -111.9386 97° East 512 589 37,000  Level Salt Lake Center
11:03AM 47.0272 -111.7333 97° East 512 589 37,000  Level Salt Lake Center
11:04AM 47.0097 -111.5289 97° East 511 588 37,000  Level Salt Lake Center
11:05AM 46.9914 -111.3256 97° East 510 587 37,000  Level Salt Lake Center
11:06AM 46.9733 -111.1219 97° East 509 586 37,000  Level Salt Lake Center
11:07AM 46.9503 -110.8758 98° East 511 588 37,000  Level Salt Lake Center
11:08AM 46.9322 -110.6711 97° East 511 588 37,000  Level Salt Lake Center
11:09AM 46.9117 -110.4664 98° East 511 588 37,000 -60 Level Salt Lake Center
11:10AM 46.8922 -110.2617 98° East 512 589 36,900  Descending Salt Lake Center
11:11AM 46.8747 -110.0531 97° East 516 594 37,000  Climbing Salt Lake Center
11:13AM 46.8497 -109.8081 98° East 514 592 37,000  Level Salt Lake Center
11:14AM 46.8283 -109.6061 99° East 510 587 37,000  Level Salt Lake Center
11:15AM 46.8067 -109.4000 99° East 512 589 37,000  Level Salt Lake Center
11:16AM 46.7839 -109.1981 99° East 510 587 37,000  Level Salt Lake Center
11:17AM 46.7564 -108.9622 100° East 508 585 37,000  Level Salt Lake Center
11:18AM 46.7347 -108.7597 99° East 509 586 37,000  Level Salt Lake Center
11:19AM 46.7117 -108.5569 99° East 510 587 37,000  Level Salt Lake Center
11:20AM 46.6881 -108.3542 100° East 510 587 37,000  Level Salt Lake Center
11:21AM 46.6639 -108.1458 100° East 516 594 37,000  Level Salt Lake Center
11:22AM 46.6397 -107.9439 100° East 509 586 37,000  Level Salt Lake Center
11:23AM 46.6150 -107.7397 100° East 512 589 37,000  Level Salt Lake Center
11:24AM 46.5858 -107.4992 100° East 507 583 37,000  Level Salt Lake Center
11:25AM 46.5603 -107.2950 100° East 510 587 37,000  Level Salt Lake Center
11:26AM 46.5347 -107.0933 100° East 509 586 37,000  Level Salt Lake Center
11:27AM 46.5086 -106.8922 101° East 509 586 37,000  Level Salt Lake Center
11:28AM 46.4817 -106.6897 101° East 511 588 37,000  Level Salt Lake Center
11:29AM 46.4547 -106.4889 101° East 509 586 37,000  Level Salt Lake Center
11:30AM 46.4222 -106.2469 101° East 510 587 37,000  Level Salt Lake Center
11:31AM 46.3942 -106.0458 101° East 511 588 37,000  Level Salt Lake Center
11:32AM 46.3569 -105.8489 105° East 509 586 37,000  Level Salt Lake Center
11:33AM 46.2981 -105.6600 114° Southeast 513 590 37,000  Level Salt Lake Center
11:34AM 46.2436 -105.4739 113° Southeast 509 586 37,000  Level Salt Lake Center
11:35AM 46.1886 -105.2844 113° Southeast 510 587 37,000  Level Salt Lake Center
11:36AM 46.1250 -105.0633 112° Southeast 505 581 37,000  Level Salt Lake Center
11:37AM 46.0719 -104.8775 112° Southeast 503 579 37,000  Level Salt Lake Center
11:38AM 46.0167 -104.6911 113° Southeast 505 581 37,000  Level Salt Lake Center
11:39AM 45.9614 -104.5061 113° Southeast 506 582 37,000  Level Salt Lake Center
11:40AM 45.9025 -104.3122 114° Southeast 507 583 37,000  Level Salt Lake Center
11:41AM 45.8475 -104.1269 113° Southeast 508 585 37,000  Level Salt Lake Center
11:42AM 45.7908 -103.9433 114° Southeast 507 583 37,000  Level Salt Lake Center
11:44AM 45.7344 -103.7561 113° Southeast 512 589 37,000  Level Salt Lake Center
11:45AM 45.6656 -103.5347 114° Southeast 511 588 37,000  Level Salt Lake Center
11:46AM 45.6069 -103.3517 115° Southeast 510 587 37,000  Level Salt Lake Center
11:48AM 45.4917 -102.9800 114° Southeast 514 592 37,000  Level Salt Lake Center
11:49AM 45.4328 -102.7967 115° Southeast 513 590 37,000  Level Salt Lake Center
11:50AM 45.3619 -102.5772 115° Southeast 512 589 37,000  Level Salt Lake Center
11:51AM 45.3031 -102.3936 114° Southeast 512 589 37,000  Level Salt Lake Center
11:52AM 45.2319 -102.1842 116° Southeast 512 589 37,000  Level Minneapolis Center
11:53AM 45.1719 -102.0014 115° Southeast 513 590 37,000  Level Minneapolis Center
11:54AM 45.1114 -101.8200 115° Southeast 512 589 37,000  Level Minneapolis Center
11:55AM 45.0539 -101.6361 114° Southeast 513 590 37,000  Level Minneapolis Center
11:56AM 45.0067 -101.4481 109° East 511 588 37,000  Level Minneapolis Center
11:57AM 44.9572 -101.2600 110° East 511 588 37,000  Level Minneapolis Center
11:58AM 44.8975 -101.0353 110° East 512 589 37,000  Level Minneapolis Center
11:59AM 44.8453 -100.8478 111° Southeast 514 592 37,000  Level Minneapolis Center
12:00PM 44.7942 -100.6589 111° Southeast 517 595 37,000  Level Minneapolis Center
12:01PM 44.7439 -100.4717 111° Southeast 517 595 37,000  Level Minneapolis Center
12:02PM 44.6917 -100.2850 111° Southeast 518 596 37,000  Level Minneapolis Center
12:03PM 44.6292 -100.0600 111° Southeast 520 598 37,000  Level Minneapolis Center
12:04PM 44.5767 -99.8728 111° Southeast 521 600 37,000  Level Minneapolis Center
12:05PM 44.5250 -99.6850 111° Southeast 521 600 37,000  Level Minneapolis Center
12:06PM 44.4717 -99.4975 112° Southeast 521 600 37,000  Level Minneapolis Center
12:07PM 44.4181 -99.3100 112° Southeast 521 600 37,000  Level Minneapolis Center
12:08PM 44.3531 -99.0864 112° Southeast 520 598 37,000  Level Minneapolis Center
12:09PM 44.2983 -98.8989 112° Southeast 522 601 37,000  Level Minneapolis Center
12:11PM 44.2433 -98.7111 112° Southeast 524 603 37,000  Level Minneapolis Center
12:12PM 44.1858 -98.5225 113° Southeast 522 601 37,000 240 Level Minneapolis Center
12:13PM 44.1300 -98.3353 113° Southeast 524 603 37,600 480 Climbing Minneapolis Center
12:14PM 44.0731 -98.1456 113° Southeast 532 612 38,000 180 Climbing Minneapolis Center
12:15PM 44.0147 -97.9528 113° Southeast 541 623 38,000  Level Minneapolis Center
12:16PM 43.9450 -97.7272 113° Southeast 534 615 38,000  Level Minneapolis Center
12:17PM 43.8881 -97.5406 113° Southeast 531 611 38,000  Level Minneapolis Center
12:18PM 43.8314 -97.3556 113° Southeast 527 606 38,000  Level Minneapolis Center
12:19PM 43.7728 -97.1725 114° Southeast 525 604 38,000  Level Minneapolis Center
12:20PM 43.7158 -96.9886 113° Southeast 525 604 38,000 420 Level Minneapolis Center
12:21PM 43.6444 -96.7700 114° Southeast 526 605 38,900 480 Climbing Minneapolis Center
12:22PM 43.5756 -96.5931 118° Southeast 528 608 39,000  Climbing Minneapolis Center
12:23PM 43.5044 -96.4206 120° Southeast 525 604 39,000  Level Minneapolis Center
12:24PM 43.4353 -96.2492 119° Southeast 520 598 39,000  Level Minneapolis Center
12:25PM 43.3658 -96.0783 119° Southeast 517 595 39,000  Level Minneapolis Center
12:26PM 43.2817 -95.8747 120° Southeast 515 593 39,000  Level Minneapolis Center
12:27PM 43.2119 -95.7072 120° Southeast 511 588 39,000  Level Minneapolis Center
12:28PM 43.1417 -95.5389 120° Southeast 511 588 39,000  Level Minneapolis Center
12:29PM 43.0708 -95.3692 120° Southeast 514 592 39,000  Level Minneapolis Center
12:30PM 42.9994 -95.1997 120° Southeast 516 594 39,000  Level Minneapolis Center
12:31PM 42.9128 -94.9936 120° Southeast 523 602 39,000  Level Minneapolis Center
12:32PM 42.8400 -94.8239 120° Southeast 522 601 39,000  Level Minneapolis Center
12:33PM 42.7669 -94.6531 120° Southeast 523 602 39,000  Level Minneapolis Center
12:34PM 42.6903 -94.4769 121° Southeast 527 606 39,000  Level Minneapolis Center
12:35PM 42.6194 -94.3047 119° Southeast 528 608 39,000  Level Minneapolis Center
12:36PM 42.6114 -94.1167 93° East 501 577 39,000  Level Minneapolis Center
12:37PM 42.6122 -93.9281 90° East 504 580 39,000  Level Minneapolis Center
12:38PM 42.6136 -93.7408 89° East 503 579 39,000  Level Minneapolis Center
12:39PM 42.6150 -93.5139 89° East 504 580 39,000  Level Minneapolis Center
12:40PM 42.6158 -93.3269 90° East 501 577 39,000  Level Minneapolis Center
12:42PM 42.6153 -93.1397 90° East 502 578 39,000  Level Minneapolis Center
12:42PM 42.6169 -92.9881 89° East 503 579 39,000  Level Chicago Center
12:43PM 42.6144 -92.8022 91° East 500 575 39,000  Level Chicago Center
12:44PM 42.6108 -92.6172 91° East 497 572 39,000  Level Chicago Center
12:45PM 42.6125 -92.4336 89° East 495 570 39,000  Level Chicago Center
12:46PM 42.6117 -92.2506 90° East 492 566 39,000  Level Chicago Center
12:47PM 42.6094 -92.0319 91° East 489 563 39,000  Level Chicago Center
12:48PM 42.6078 -91.8511 91° East 488 562 39,000  Level Chicago Center
12:49PM 42.6058 -91.6719 91° East 488 562 39,000  Level Chicago Center
12:50PM 42.6033 -91.4578 91° East 486 559 39,000  Level Chicago Center
12:52PM 42.6011 -91.2775 91° East 487 560 39,000  Level Chicago Center
12:53PM 42.5978 -91.0950 91° East 493 567 39,000  Level Chicago Center
12:54PM 42.5936 -90.9119 92° East 493 567 39,000  Level Chicago Center
12:55PM 42.5897 -90.7275 92° East 495 570 39,000  Level Chicago Center
12:56PM 42.5853 -90.5042 91° East 497 572 39,000  Level Chicago Center
12:57PM 42.5811 -90.3194 92° East 497 572 39,000  Level Chicago Center
12:58PM 42.5756 -90.1331 92° East 500 575 39,000  Level Chicago Center
12:59PM 42.5708 -89.9481 92° East 498 573 39,000  Level Chicago Center
01:00PM 42.5633 -89.7203 92° East 502 578 39,000  Level Chicago Center
01:01PM 42.5569 -89.5319 93° East 503 579 39,000  Level Chicago Center
01:02PM 42.5506 -89.3439 93° East 503 579 39,000  Level Chicago Center
01:03PM 42.5453 -89.1572 92° East 499 574 39,000  Level Chicago Center
01:04PM 42.5386 -88.9694 93° East 501 577 39,000  Level Chicago Center
01:05PM 42.5303 -88.7525 93° East 500 575 39,000  Level Chicago Center
01:06PM 42.5233 -88.5675 93° East 497 572 39,000  Level Chicago Center
01:07PM 42.5164 -88.3800 93° East 498 573 39,000  Level Chicago Center
01:08PM 42.5089 -88.1958 93° East 495 570 39,000  Level Chicago Center
01:09PM 42.5008 -88.0122 93° East 491 565 39,000  Level Chicago Center
01:10PM 42.4994 -87.7956 90° East 493 567 39,000  Level Chicago Center
01:11PM 42.4994 -87.6292 90° East 491 565 39,000  Level Chicago Center
01:12PM 42.4983 -87.4433 90° East 492 566 39,000  Level Chicago Center
01:13PM 42.4975 -87.2225 90° East 490 564 39,000  Level Chicago Center
01:14PM 42.4953 -87.0367 91° East 493 567 39,000  Level Chicago Center
01:15PM 42.4942 -86.8519 90° East 493 567 39,000  Level Chicago Center
01:16PM 42.4911 -86.6578 91° East 493 567 39,000  Level Chicago Center
01:17PM 42.4903 -86.4594 90° East 496 571 39,000  Level Chicago Center
01:18PM 42.4867 -86.2764 91° East 493 567 39,000  Level Chicago Center
01:19PM 42.4839 -86.0928 91° East 492 566 39,000  Level Chicago Center
01:20PM 42.4811 -85.9075 91° East 497 572 39,000  Level Chicago Center
01:22PM 42.4775 -85.7225 91° East 496 571 39,000  Level Chicago Center
01:23PM 42.4731 -85.4967 91° East 503 579 39,000  Level Chicago Center
01:24PM 42.4694 -85.3081 91° East 506 582 39,000  Level Chicago Center
01:25PM 42.4658 -85.1183 91° East 505 581 39,000  Level Chicago Center
01:26PM 42.4608 -84.9292 92° East 505 581 39,000  Level Chicago Center
01:27PM 42.4561 -84.7408 92° East 503 579 39,000  Level Chicago Center
01:28PM 42.4486 -84.5164 93° East 500 575 39,000  Level Chicago Center
01:29PM 42.4433 -84.3286 92° East 500 575 39,000  Level Chicago Center
01:29PM 42.4378 -84.2297 94° East 498 573 39,000  Level Cleveland Center
01:30PM 42.4311 -84.0464 93° East 498 573 39,000  Level Cleveland Center
01:31PM 42.4258 -83.8633 92° East 498 573 39,000  Level Cleveland Center
01:32PM 42.4200 -83.6997 93° East 493 567 39,000  Level Cleveland Center
01:33PM 42.4108 -83.4994 93° East 482 555 39,000  Level Cleveland Center
01:34PM 42.4047 -83.3219 93° East 482 555 39,000  Level Cleveland Center
01:35PM 42.3981 -83.1558 93° East 482 555 39,000  Level Cleveland Center
01:36PM 42.3894 -82.9811 94° East 477 549 39,000  Level Cleveland Center
01:37PM 42.3825 -82.8067 93° East 472 543 39,000  Level Cleveland Center
01:38PM 42.3753 -82.6294 93° East 472 543 39,000  Level Cleveland Center
01:39PM 42.3681 -82.4492 93° East 472 543 39,000  Level Cleveland Center
01:40PM 42.3603 -82.2692 93° East 477 549 39,000  Level Cleveland Center
01:41PM 42.3547 -82.0750 92° East 477 549 39,000  Level Cleveland Center
01:42PM 42.3464 -81.8950 94° East 484 557 39,000  Level Cleveland Center
01:43PM 42.3378 -81.7153 94° East 476 548 39,000  Level Cleveland Center
01:44PM 42.3292 -81.5381 94° East 476 548 39,000  Level Cleveland Center
01:45PM 42.3200 -81.3611 94° East 481 554 39,000  Level Cleveland Center
01:46PM 42.3128 -81.1783 93° East 481 554 39,000  Level Cleveland Center
01:47PM 42.3031 -81.0014 94° East 481 554 39,000  Level Cleveland Center
01:48PM 42.2933 -80.8161 94° East 482 555 39,000  Level Cleveland Center
01:49PM 42.2872 -80.6589 93° East 482 555 39,000  Level Cleveland Center
01:50PM 42.2706 -80.4736 97° East 482 555 39,000  Level Cleveland Center
01:51PM 42.2639 -80.2969 93° East 482 555 39,000  Level Cleveland Center
01:52PM 42.2489 -80.1147 96° East 482 555 39,000  Level Cleveland Center
01:53PM 42.2167 -79.9272 103° East 477 549 39,000  Level Cleveland Center
01:54PM 42.1906 -79.7619 102° East 484 557 39,000  Level Cleveland Center
01:55PM 42.1600 -79.5831 103° East 484 557 39,000  Level Cleveland Center
01:56PM 42.1333 -79.4044 101° East 490 564 39,000  Level Cleveland Center
01:57PM 42.1061 -79.2258 102° East 490 564 39,000  Level Cleveland Center
01:58PM 42.0769 -79.0503 103° East 490 564 39,000  Level Cleveland Center
01:59PM 42.0453 -78.8719 103° East 490 564 39,000  Level Cleveland Center
02:00PM 42.0153 -78.6967 103° East 490 564 39,000  Level Cleveland Center
02:01PM 41.9831 -78.5189 104° East 490 564 39,000  Level Cleveland Center
02:02PM 41.9528 -78.3411 103° East 490 564 39,000  Level Cleveland Center
02:03PM 41.9175 -78.1442 103° East 490 564 39,000  Level Cleveland Center
02:05PM 41.8672 -77.8761 104° East 502 578 39,000  Level New York Center
02:06PM 41.8253 -77.7019 108° East 497 572 39,000  Level New York Center
02:07PM 41.7808 -77.5358 110° East 480 552 39,000  Level New York Center
02:08PM 41.7358 -77.3700 110° East 475 547 39,000  Level New York Center
02:09PM 41.6911 -77.1989 109° East 475 547 39,000  Level New York Center
02:10PM 41.6458 -77.0336 110° East 480 552 39,000  Level New York Center
02:11PM 41.6022 -76.8686 109° East 480 552 39,000  Level New York Center
02:12PM 41.5544 -76.7006 111° Southeast 480 552 39,000  Level New York Center
02:13PM 41.5178 -76.5589 109° East 473 544 39,000 -420 Level New York Center
02:14PM 41.4756 -76.3972 109° East 468 539 38,200 -1,500 Descending New York Center
02:15PM 41.4197 -76.2100 112° Southeast 479 551 36,100 -1,680 Descending New York Center
02:16PM 41.3714 -76.0347 110° East 501 577 34,900 -1,500 Descending New York Center
02:17PM 41.3222 -75.8733 112° Southeast 490 564 33,100 -2,760 Descending New York Center
02:18PM 41.2753 -75.7014 110° East 485 558 29,400 -3,360 Descending New York Center
02:19PM 41.2178 -75.5289 114° Southeast 490 564 26,500 -2,820 Descending New York Center
02:20PM 41.1639 -75.3653 114° Southeast 490 564 23,800 -1,740 Descending New York Center
02:21PM 41.1133 -75.2186 115° Southeast 464 534 23,000 -720 Descending New York Center
02:22PM 41.0700 -75.0919 114° Southeast 418 481 22,500 -540 Descending New York Center
02:23PM 41.0306 -74.9739 114° Southeast 377 434 22,000 -660 Descending New York Center
02:24PM 40.9953 -74.8508 111° Southeast 359 413 21,200 -540 Descending New York Center
02:25PM 40.9811 -74.7181 98° East 354 407 21,000 -120 Descending New York Center
02:26PM 40.9647 -74.5853 99° East 354 407 21,000 -240 Level New York Center
02:27PM 40.9500 -74.4333 97° East 363 418 20,500 -840 Descending New York TRACON
02:28PM 40.9333 -74.3167 101° East 357 411 19,300 -1,020 Descending New York TRACON
02:29PM 40.9167 -74.1833 99° East 349 402 18,500 -1,020 Descending New York TRACON
02:30PM 40.8833 -74.0667 111° Southeast 327 376 17,300 -1,260 Descending New York TRACON
02:31PM 40.8333 -73.9667 123° Southeast 314 361 16,000 -1,320 Descending New York TRACON
02:32PM 40.7833 -73.8833 128° Southeast 306 352 14,700 -1,320 Descending New York TRACON
02:33PM 40.7500 -73.7833 114° Southeast 316 364 13,500 -900 Descending New York TRACON
02:34PM 40.7167 -73.6667 111° Southeast 325 374 13,000 -1,200 Descending New York TRACON
02:35PM 40.6500 -73.6667 180° South 290 334 11,100 -2,340 Descending New York TRACON
02:36PM 40.5667 -73.6667 180° South 281 323 8,400 -2,460 Descending New York TRACON
02:37PM 40.5000 -73.6833 191° South 261 300 6,200 -2,100 Descending New York TRACON
02:38PM 40.4167 -73.6833 180° South 266 306 4,200 -1,620 Descending New York TRACON
02:39PM 40.3833 -73.7500 237° Southwest 259 298 3,000 -600 Descending New York TRACON
02:40PM 40.3667 -73.8500 258° West 268 308 3,000  Level New York TRACON
02:41PM 40.4000 -73.9333 298° West 259 298 3,000  Level New York TRACON
02:42PM 40.4500 -73.9833 323° Northwest 241 277 3,000  Level New York TRACON
02:43PM 40.5000 -73.9833 360° North 216 249 3,000  Level New York TRACON
02:44PM 40.5500 -73.9500 27° Northeast 195 224 3,000 -240 Level New York TRACON
02:45PM 40.6000 -73.9167 27° Northeast 200 230 2,600 -720 Descending New York TRACON
02:46PM 40.6333 -73.8667 49° Northeast 190 219 1,600 -960 Descending New York TRACON
02:47PM 40.6667 -73.8333 37° Northeast 154 177 700 -900 Descending New York TRACON